sensor_id;sensor_type;location;lat;lon;timestamp;temperature;humidity
13203;DHT22;6666;51.626;7.530;2022-07-24T00:01:37;16.90;99.90
13203;DHT22;6666;51.626;7.530;2022-07-24T00:04:05;16.80;99.90
13203;DHT22;6666;51.626;7.530;2022-07-24T00:06:34;16.70;99.90
13203;DHT22;6666;51.626;7.530;2022-07-24T00:09:03;16.70;99.90
13203;DHT22;6666;51.626;7.530;2022-07-24T00:11:32;16.70;99.90
13203;DHT22;6666;51.626;7.530;2022-07-24T00:14:01;16.70;99.90
13203;DHT22;6666;51.626;7.530;2022-07-24T00:16:29;16.70;99.90
13203;DHT22;6666;51.626;7.530;2022-07-24T00:18:59;16.60;99.90
13203;DHT22;6666;51.626;7.530;2022-07-24T00:21:28;16.50;99.90
13203;DHT22;6666;51.626;7.530;2022-07-24T00:23:56;16.60;99.90
13203;DHT22;6666;51.626;7.530;2022-07-24T00:26:25;16.50;99.90
13203;DHT22;6666;51.626;7.530;2022-07-24T00:28:53;16.60;99.90
13203;DHT22;6666;51.626;7.530;2022-07-24T00:31:21;16.50;99.90
13203;DHT22;6666;51.626;7.530;2022-07-24T00:33:50;16.50;99.90
13203;DHT22;6666;51.626;7.530;2022-07-24T00:36:19;16.50;99.90
13203;DHT22;6666;51.626;7.530;2022-07-24T00:38:48;16.50;99.90
13203;DHT22;6666;51.626;7.530;2022-07-24T00:41:16;16.40;99.90
13203;DHT22;6666;51.626;7.530;2022-07-24T00:44:05;16.50;99.90
13203;DHT22;6666;51.626;7.530;2022-07-24T00:46:35;16.50;99.90
13203;DHT22;6666;51.626;7.530;2022-07-24T00:49:06;16.40;99.90
13203;DHT22;6666;51.626;7.530;2022-07-24T00:51:47;16.40;99.90
13203;DHT22;6666;51.626;7.530;2022-07-24T00:54:16;16.50;99.90
13203;DHT22;6666;51.626;7.530;2022-07-24T00:56:47;16.40;99.90
13203;DHT22;6666;51.626;7.530;2022-07-24T00:59:16;16.40;99.90
13203;DHT22;6666;51.626;7.530;2022-07-24T01:01:45;16.30;99.90
13203;DHT22;6666;51.626;7.530;2022-07-24T01:04:14;16.20;99.90
13203;DHT22;6666;51.626;7.530;2022-07-24T01:06:45;16.20;99.90
13203;DHT22;6666;51.626;7.530;2022-07-24T01:09:15;16.30;99.90
13203;DHT22;6666;51.626;7.530;2022-07-24T01:11:43;16.30;99.90
13203;DHT22;6666;51.626;7.530;2022-07-24T01:14:13;16.20;99.90
13203;DHT22;6666;51.626;7.530;2022-07-24T01:16:42;16.20;99.90
13203;DHT22;6666;51.626;7.530;2022-07-24T01:19:12;16.10;99.90
13203;DHT22;6666;51.626;7.530;2022-07-24T01:21:47;16.10;99.90
13203;DHT22;6666;51.626;7.530;2022-07-24T01:24:15;16.00;99.90
13203;DHT22;6666;51.626;7.530;2022-07-24T01:26:44;16.00;99.90
13203;DHT22;6666;51.626;7.530;2022-07-24T01:29:12;16.00;99.90
13203;DHT22;6666;51.626;7.530;2022-07-24T01:31:41;16.00;99.90
13203;DHT22;6666;51.626;7.530;2022-07-24T01:34:09;16.10;99.90
13203;DHT22;6666;51.626;7.530;2022-07-24T01:36:37;16.10;99.90
13203;DHT22;6666;51.626;7.530;2022-07-24T01:39:07;16.00;99.90
13203;DHT22;6666;51.626;7.530;2022-07-24T01:41:35;15.90;99.90
13203;DHT22;6666;51.626;7.530;2022-07-24T01:44:04;15.90;99.90
13203;DHT22;6666;51.626;7.530;2022-07-24T01:46:32;15.80;99.90
13203;DHT22;6666;51.626;7.530;2022-07-24T01:49:00;15.80;99.90
13203;DHT22;6666;51.626;7.530;2022-07-24T01:51:29;15.70;99.90
13203;DHT22;6666;51.626;7.530;2022-07-24T01:53:58;15.70;99.90
13203;DHT22;6666;51.626;7.530;2022-07-24T01:56:28;15.80;99.90
13203;DHT22;6666;51.626;7.530;2022-07-24T01:58:56;15.80;99.90
13203;DHT22;6666;51.626;7.530;2022-07-24T02:01:25;15.80;99.90
13203;DHT22;6666;51.626;7.530;2022-07-24T02:03:54;15.90;99.90
13203;DHT22;6666;51.626;7.530;2022-07-24T02:06:23;15.80;99.90
13203;DHT22;6666;51.626;7.530;2022-07-24T02:08:54;15.70;99.90
13203;DHT22;6666;51.626;7.530;2022-07-24T02:11:22;15.70;99.90
13203;DHT22;6666;51.626;7.530;2022-07-24T02:13:52;15.60;99.90
13203;DHT22;6666;51.626;7.530;2022-07-24T02:16:22;15.60;99.90
13203;DHT22;6666;51.626;7.530;2022-07-24T02:18:51;15.60;99.90
13203;DHT22;6666;51.626;7.530;2022-07-24T02:21:19;15.60;99.90
13203;DHT22;6666;51.626;7.530;2022-07-24T02:23:48;15.70;99.90
13203;DHT22;6666;51.626;7.530;2022-07-24T02:26:16;15.60;99.90
13203;DHT22;6666;51.626;7.530;2022-07-24T02:28:45;15.60;99.90
13203;DHT22;6666;51.626;7.530;2022-07-24T02:31:14;15.60;99.90
13203;DHT22;6666;51.626;7.530;2022-07-24T02:33:43;15.70;99.90
13203;DHT22;6666;51.626;7.530;2022-07-24T02:36:11;15.70;99.90
13203;DHT22;6666;51.626;7.530;2022-07-24T02:38:41;15.70;99.90
13203;DHT22;6666;51.626;7.530;2022-07-24T02:41:09;15.70;99.90
13203;DHT22;6666;51.626;7.530;2022-07-24T02:43:38;15.60;99.90
13203;DHT22;6666;51.626;7.530;2022-07-24T02:46:06;15.60;99.90
13203;DHT22;6666;51.626;7.530;2022-07-24T02:48:36;15.60;99.90
13203;DHT22;6666;51.626;7.530;2022-07-24T02:51:04;15.60;99.90
13203;DHT22;6666;51.626;7.530;2022-07-24T02:53:33;15.50;99.90
13203;DHT22;6666;51.626;7.530;2022-07-24T02:56:01;15.60;99.90
13203;DHT22;6666;51.626;7.530;2022-07-24T02:58:29;15.60;99.90
13203;DHT22;6666;51.626;7.530;2022-07-24T03:00:58;15.60;99.90
13203;DHT22;6666;51.626;7.530;2022-07-24T03:03:26;15.60;99.90
13203;DHT22;6666;51.626;7.530;2022-07-24T03:05:56;15.60;99.90
13203;DHT22;6666;51.626;7.530;2022-07-24T03:08:25;15.50;99.90
13203;DHT22;6666;51.626;7.530;2022-07-24T03:10:53;15.50;99.90
13203;DHT22;6666;51.626;7.530;2022-07-24T03:13:22;15.50;99.90
13203;DHT22;6666;51.626;7.530;2022-07-24T03:15:50;15.50;99.90
13203;DHT22;6666;51.626;7.530;2022-07-24T03:18:18;15.50;99.90
13203;DHT22;6666;51.626;7.530;2022-07-24T03:20:49;15.50;99.90
13203;DHT22;6666;51.626;7.530;2022-07-24T03:23:18;15.50;99.90
13203;DHT22;6666;51.626;7.530;2022-07-24T03:25:47;15.50;99.90
13203;DHT22;6666;51.626;7.530;2022-07-24T03:28:15;15.50;99.90
13203;DHT22;6666;51.626;7.530;2022-07-24T03:30:43;15.50;99.90
13203;DHT22;6666;51.626;7.530;2022-07-24T03:33:12;15.50;99.90
13203;DHT22;6666;51.626;7.530;2022-07-24T03:35:40;15.50;99.90
13203;DHT22;6666;51.626;7.530;2022-07-24T03:38:08;15.50;99.90
13203;DHT22;6666;51.626;7.530;2022-07-24T03:40:38;15.50;99.90
13203;DHT22;6666;51.626;7.530;2022-07-24T03:43:06;15.50;99.90
13203;DHT22;6666;51.626;7.530;2022-07-24T03:45:35;15.60;99.90
13203;DHT22;6666;51.626;7.530;2022-07-24T03:48:04;15.60;99.90
13203;DHT22;6666;51.626;7.530;2022-07-24T03:50:32;15.60;99.90
13203;DHT22;6666;51.626;7.530;2022-07-24T03:53:01;15.60;99.90
13203;DHT22;6666;51.626;7.530;2022-07-24T03:55:32;15.70;99.90
13203;DHT22;6666;51.626;7.530;2022-07-24T03:58:02;15.60;99.90
13203;DHT22;6666;51.626;7.530;2022-07-24T04:00:31;15.70;99.90
13203;DHT22;6666;51.626;7.530;2022-07-24T04:03:00;15.60;99.90
13203;DHT22;6666;51.626;7.530;2022-07-24T04:05:28;15.70;99.90
13203;DHT22;6666;51.626;7.530;2022-07-24T04:07:56;15.80;99.90
13203;DHT22;6666;51.626;7.530;2022-07-24T04:10:25;15.90;99.90
13203;DHT22;6666;51.626;7.530;2022-07-24T04:12:53;15.90;99.90
13203;DHT22;6666;51.626;7.530;2022-07-24T04:15:23;16.00;99.90
13203;DHT22;6666;51.626;7.530;2022-07-24T04:17:51;16.10;99.90
13203;DHT22;6666;51.626;7.530;2022-07-24T04:20:20;16.00;99.90
13203;DHT22;6666;51.626;7.530;2022-07-24T04:22:49;16.30;99.90
13203;DHT22;6666;51.626;7.530;2022-07-24T04:25:17;16.70;99.90
13203;DHT22;6666;51.626;7.530;2022-07-24T04:27:46;17.30;99.90
13203;DHT22;6666;51.626;7.530;2022-07-24T04:30:14;17.80;99.90
13203;DHT22;6666;51.626;7.530;2022-07-24T04:32:44;18.00;99.90
13203;DHT22;6666;51.626;7.530;2022-07-24T04:35:12;18.10;99.90
13203;DHT22;6666;51.626;7.530;2022-07-24T04:37:41;18.80;99.90
13203;DHT22;6666;51.626;7.530;2022-07-24T04:40:10;19.30;99.90
13203;DHT22;6666;51.626;7.530;2022-07-24T04:42:39;19.90;99.90
13203;DHT22;6666;51.626;7.530;2022-07-24T04:45:09;20.10;99.90
13203;DHT22;6666;51.626;7.530;2022-07-24T04:47:37;20.20;99.90
13203;DHT22;6666;51.626;7.530;2022-07-24T04:50:08;20.60;99.90
13203;DHT22;6666;51.626;7.530;2022-07-24T04:52:37;20.50;99.90
13203;DHT22;6666;51.626;7.530;2022-07-24T04:55:06;19.90;99.90
13203;DHT22;6666;51.626;7.530;2022-07-24T04:57:35;19.50;99.90
13203;DHT22;6666;51.626;7.530;2022-07-24T05:00:05;19.10;99.90
13203;DHT22;6666;51.626;7.530;2022-07-24T05:02:34;19.20;99.90
13203;DHT22;6666;51.626;7.530;2022-07-24T05:05:03;19.10;99.90
13203;DHT22;6666;51.626;7.530;2022-07-24T05:07:33;19.60;99.90
13203;DHT22;6666;51.626;7.530;2022-07-24T05:10:03;20.30;99.90
13203;DHT22;6666;51.626;7.530;2022-07-24T05:12:31;20.90;99.90
13203;DHT22;6666;51.626;7.530;2022-07-24T05:14:59;21.60;99.90
13203;DHT22;6666;51.626;7.530;2022-07-24T05:17:28;22.10;99.90
13203;DHT22;6666;51.626;7.530;2022-07-24T05:19:56;22.70;99.90
13203;DHT22;6666;51.626;7.530;2022-07-24T05:22:24;22.30;99.90
13203;DHT22;6666;51.626;7.530;2022-07-24T05:24:54;22.30;99.90
13203;DHT22;6666;51.626;7.530;2022-07-24T05:27:22;22.00;99.90
13203;DHT22;6666;51.626;7.530;2022-07-24T05:29:51;22.60;99.90
13203;DHT22;6666;51.626;7.530;2022-07-24T05:32:19;22.60;99.90
13203;DHT22;6666;51.626;7.530;2022-07-24T05:34:47;22.70;99.90
13203;DHT22;6666;51.626;7.530;2022-07-24T05:37:16;22.40;99.90
13203;DHT22;6666;51.626;7.530;2022-07-24T05:39:44;22.50;99.90
13203;DHT22;6666;51.626;7.530;2022-07-24T05:42:14;22.50;99.90
13203;DHT22;6666;51.626;7.530;2022-07-24T05:44:43;22.20;99.90
13203;DHT22;6666;51.626;7.530;2022-07-24T05:47:11;22.60;99.90
13203;DHT22;6666;51.626;7.530;2022-07-24T05:49:40;22.60;99.90
13203;DHT22;6666;51.626;7.530;2022-07-24T05:52:08;23.30;99.90
13203;DHT22;6666;51.626;7.530;2022-07-24T05:54:36;23.40;99.90
13203;DHT22;6666;51.626;7.530;2022-07-24T05:57:05;23.60;99.90
13203;DHT22;6666;51.626;7.530;2022-07-24T05:59:34;23.50;99.90
13203;DHT22;6666;51.626;7.530;2022-07-24T06:02:03;23.00;99.90
13203;DHT22;6666;51.626;7.530;2022-07-24T06:04:31;23.00;99.90
13203;DHT22;6666;51.626;7.530;2022-07-24T06:07:02;23.50;99.90
13203;DHT22;6666;51.626;7.530;2022-07-24T06:09:31;23.60;99.90
13203;DHT22;6666;51.626;7.530;2022-07-24T06:11:59;23.80;99.90
13203;DHT22;6666;51.626;7.530;2022-07-24T06:14:28;23.50;99.90
13203;DHT22;6666;51.626;7.530;2022-07-24T06:16:57;23.80;99.90
13203;DHT22;6666;51.626;7.530;2022-07-24T06:19:26;23.30;99.90
13203;DHT22;6666;51.626;7.530;2022-07-24T06:21:54;23.70;99.90
13203;DHT22;6666;51.626;7.530;2022-07-24T06:24:23;23.80;99.90
13203;DHT22;6666;51.626;7.530;2022-07-24T06:26:51;23.60;99.90
13203;DHT22;6666;51.626;7.530;2022-07-24T06:29:38;23.90;99.90
13203;DHT22;6666;51.626;7.530;2022-07-24T06:32:07;23.90;99.90
13203;DHT22;6666;51.626;7.530;2022-07-24T06:34:36;23.90;99.90
13203;DHT22;6666;51.626;7.530;2022-07-24T06:37:04;23.70;99.90
13203;DHT22;6666;51.626;7.530;2022-07-24T06:39:32;23.60;99.90
13203;DHT22;6666;51.626;7.530;2022-07-24T06:42:01;23.50;99.90
13203;DHT22;6666;51.626;7.530;2022-07-24T06:44:29;23.90;99.90
13203;DHT22;6666;51.626;7.530;2022-07-24T06:46:57;23.90;99.90
13203;DHT22;6666;51.626;7.530;2022-07-24T06:49:27;23.90;99.90
13203;DHT22;6666;51.626;7.530;2022-07-24T06:51:55;23.80;99.90
13203;DHT22;6666;51.626;7.530;2022-07-24T06:54:23;23.90;99.90
13203;DHT22;6666;51.626;7.530;2022-07-24T06:56:52;24.00;99.90
13203;DHT22;6666;51.626;7.530;2022-07-24T06:59:20;24.30;99.90
13203;DHT22;6666;51.626;7.530;2022-07-24T07:01:49;24.10;99.90
13203;DHT22;6666;51.626;7.530;2022-07-24T07:04:17;23.90;99.90
13203;DHT22;6666;51.626;7.530;2022-07-24T07:06:47;24.00;99.90
13203;DHT22;6666;51.626;7.530;2022-07-24T07:09:15;24.20;99.90
13203;DHT22;6666;51.626;7.530;2022-07-24T07:11:44;24.40;99.90
13203;DHT22;6666;51.626;7.530;2022-07-24T07:14:18;24.40;99.90
13203;DHT22;6666;51.626;7.530;2022-07-24T07:16:46;24.40;99.90
13203;DHT22;6666;51.626;7.530;2022-07-24T07:19:15;24.50;99.90
13203;DHT22;6666;51.626;7.530;2022-07-24T07:21:43;24.50;99.90
13203;DHT22;6666;51.626;7.530;2022-07-24T07:24:13;24.50;99.90
13203;DHT22;6666;51.626;7.530;2022-07-24T07:26:41;24.60;99.90
13203;DHT22;6666;51.626;7.530;2022-07-24T07:29:10;24.60;99.90
13203;DHT22;6666;51.626;7.530;2022-07-24T07:31:38;24.60;99.90
13203;DHT22;6666;51.626;7.530;2022-07-24T07:34:06;24.60;99.90
13203;DHT22;6666;51.626;7.530;2022-07-24T07:36:35;24.60;99.90
13203;DHT22;6666;51.626;7.530;2022-07-24T07:39:04;24.60;99.90
13203;DHT22;6666;51.626;7.530;2022-07-24T07:41:34;24.80;99.90
13203;DHT22;6666;51.626;7.530;2022-07-24T07:44:04;24.90;99.90
13203;DHT22;6666;51.626;7.530;2022-07-24T07:46:33;24.70;99.90
13203;DHT22;6666;51.626;7.530;2022-07-24T07:49:02;24.90;99.90
13203;DHT22;6666;51.626;7.530;2022-07-24T07:51:31;25.00;99.90
13203;DHT22;6666;51.626;7.530;2022-07-24T07:54:00;24.90;99.90
13203;DHT22;6666;51.626;7.530;2022-07-24T07:56:28;24.80;99.90
13203;DHT22;6666;51.626;7.530;2022-07-24T07:58:59;25.10;99.90
13203;DHT22;6666;51.626;7.530;2022-07-24T08:01:28;25.00;99.90
13203;DHT22;6666;51.626;7.530;2022-07-24T08:03:56;25.00;99.90
13203;DHT22;6666;51.626;7.530;2022-07-24T08:06:25;25.20;99.90
13203;DHT22;6666;51.626;7.530;2022-07-24T08:08:53;24.90;99.90
13203;DHT22;6666;51.626;7.530;2022-07-24T08:11:22;24.90;99.90
13203;DHT22;6666;51.626;7.530;2022-07-24T08:13:50;25.10;99.90
13203;DHT22;6666;51.626;7.530;2022-07-24T08:16:20;25.00;99.90
13203;DHT22;6666;51.626;7.530;2022-07-24T08:18:49;25.20;99.90
13203;DHT22;6666;51.626;7.530;2022-07-24T08:21:18;25.30;99.90
13203;DHT22;6666;51.626;7.530;2022-07-24T08:23:46;25.20;99.90
13203;DHT22;6666;51.626;7.530;2022-07-24T08:26:15;25.20;99.90
13203;DHT22;6666;51.626;7.530;2022-07-24T08:28:44;25.30;99.90
13203;DHT22;6666;51.626;7.530;2022-07-24T08:31:12;25.30;99.90
13203;DHT22;6666;51.626;7.530;2022-07-24T08:33:42;25.30;99.90
13203;DHT22;6666;51.626;7.530;2022-07-24T08:36:10;25.30;99.90
13203;DHT22;6666;51.626;7.530;2022-07-24T08:38:38;25.40;99.90
13203;DHT22;6666;51.626;7.530;2022-07-24T08:41:07;25.30;99.90
13203;DHT22;6666;51.626;7.530;2022-07-24T08:43:35;25.40;99.90
13203;DHT22;6666;51.626;7.530;2022-07-24T08:46:05;25.50;99.90
13203;DHT22;6666;51.626;7.530;2022-07-24T08:48:36;25.60;99.90
13203;DHT22;6666;51.626;7.530;2022-07-24T08:51:07;25.70;99.90
13203;DHT22;6666;51.626;7.530;2022-07-24T08:53:35;25.70;99.90
13203;DHT22;6666;51.626;7.530;2022-07-24T08:56:04;25.70;99.90
13203;DHT22;6666;51.626;7.530;2022-07-24T08:58:36;25.90;99.90
13203;DHT22;6666;51.626;7.530;2022-07-24T09:01:05;25.90;99.90
13203;DHT22;6666;51.626;7.530;2022-07-24T09:03:41;26.00;99.90
13203;DHT22;6666;51.626;7.530;2022-07-24T09:06:12;25.80;99.90
13203;DHT22;6666;51.626;7.530;2022-07-24T09:08:42;25.80;99.90
13203;DHT22;6666;51.626;7.530;2022-07-24T09:11:11;25.90;99.90
13203;DHT22;6666;51.626;7.530;2022-07-24T09:13:46;25.90;99.90
13203;DHT22;6666;51.626;7.530;2022-07-24T09:16:36;26.00;99.90
13203;DHT22;6666;51.626;7.530;2022-07-24T09:19:07;26.20;99.90
13203;DHT22;6666;51.626;7.530;2022-07-24T09:21:41;26.30;99.90
13203;DHT22;6666;51.626;7.530;2022-07-24T09:24:12;26.50;99.90
13203;DHT22;6666;51.626;7.530;2022-07-24T09:26:44;26.50;99.90
13203;DHT22;6666;51.626;7.530;2022-07-24T09:29:13;26.50;99.90
13203;DHT22;6666;51.626;7.530;2022-07-24T09:31:53;26.50;99.90
13203;DHT22;6666;51.626;7.530;2022-07-24T09:34:22;26.40;99.90
13203;DHT22;6666;51.626;7.530;2022-07-24T09:37:00;26.30;99.90
13203;DHT22;6666;51.626;7.530;2022-07-24T09:39:31;26.30;99.90
13203;DHT22;6666;51.626;7.530;2022-07-24T09:42:01;26.40;99.90
13203;DHT22;6666;51.626;7.530;2022-07-24T09:44:29;26.20;99.90
13203;DHT22;6666;51.626;7.530;2022-07-24T09:47:01;26.20;99.90
13203;DHT22;6666;51.626;7.530;2022-07-24T09:49:31;26.30;99.90
13203;DHT22;6666;51.626;7.530;2022-07-24T09:52:13;26.40;99.90
13203;DHT22;6666;51.626;7.530;2022-07-24T09:54:44;26.40;99.90
13203;DHT22;6666;51.626;7.530;2022-07-24T09:57:19;26.40;99.90
13203;DHT22;6666;51.626;7.530;2022-07-24T09:59:49;26.40;99.90
13203;DHT22;6666;51.626;7.530;2022-07-24T10:02:24;26.50;99.90
13203;DHT22;6666;51.626;7.530;2022-07-24T10:04:55;26.50;99.90
13203;DHT22;6666;51.626;7.530;2022-07-24T10:07:26;26.60;99.90
13203;DHT22;6666;51.626;7.530;2022-07-24T10:09:56;26.60;99.90
13203;DHT22;6666;51.626;7.530;2022-07-24T10:12:26;26.90;99.90
13203;DHT22;6666;51.626;7.530;2022-07-24T10:14:57;26.90;99.90
13203;DHT22;6666;51.626;7.530;2022-07-24T10:17:34;26.80;99.90
13203;DHT22;6666;51.626;7.530;2022-07-24T10:20:08;27.10;99.90
13203;DHT22;6666;51.626;7.530;2022-07-24T10:23:01;26.90;99.90
13203;DHT22;6666;51.626;7.530;2022-07-24T10:25:30;26.90;99.90
13203;DHT22;6666;51.626;7.530;2022-07-24T10:28:08;26.90;99.90
13203;DHT22;6666;51.626;7.530;2022-07-24T10:30:40;26.90;99.90
13203;DHT22;6666;51.626;7.530;2022-07-24T10:33:15;26.90;99.50
13203;DHT22;6666;51.626;7.530;2022-07-24T10:35:46;27.00;99.60
13203;DHT22;6666;51.626;7.530;2022-07-24T10:38:20;27.10;99.90
13203;DHT22;6666;51.626;7.530;2022-07-24T10:40:51;27.10;99.90
13203;DHT22;6666;51.626;7.530;2022-07-24T10:43:21;27.20;99.90
13203;DHT22;6666;51.626;7.530;2022-07-24T10:46:10;27.30;99.20
13203;DHT22;6666;51.626;7.530;2022-07-24T10:48:39;27.30;99.10
13203;DHT22;6666;51.626;7.530;2022-07-24T10:51:16;27.30;98.70
13203;DHT22;6666;51.626;7.530;2022-07-24T10:53:49;27.40;99.90
13203;DHT22;6666;51.626;7.530;2022-07-24T10:56:24;27.50;99.10
13203;DHT22;6666;51.626;7.530;2022-07-24T10:59:04;27.60;99.10
13203;DHT22;6666;51.626;7.530;2022-07-24T11:01:40;27.50;98.80
13203;DHT22;6666;51.626;7.530;2022-07-24T11:04:28;27.50;98.40
13203;DHT22;6666;51.626;7.530;2022-07-24T11:07:08;27.60;98.10
13203;DHT22;6666;51.626;7.530;2022-07-24T11:09:59;27.70;98.30
13203;DHT22;6666;51.626;7.530;2022-07-24T11:12:29;27.60;97.20
13203;DHT22;6666;51.626;7.530;2022-07-24T11:15:04;27.50;97.20
13203;DHT22;6666;51.626;7.530;2022-07-24T11:17:51;27.40;97.50
13203;DHT22;6666;51.626;7.530;2022-07-24T11:20:21;27.30;97.20
13203;DHT22;6666;51.626;7.530;2022-07-24T11:22:51;27.30;98.00
13203;DHT22;6666;51.626;7.530;2022-07-24T11:25:23;27.60;97.90
13203;DHT22;6666;51.626;7.530;2022-07-24T11:27:54;27.60;97.60
13203;DHT22;6666;51.626;7.530;2022-07-24T11:30:25;27.80;97.70
13203;DHT22;6666;51.626;7.530;2022-07-24T11:32:55;27.80;96.70
13203;DHT22;6666;51.626;7.530;2022-07-24T11:35:32;27.80;96.60
13203;DHT22;6666;51.626;7.530;2022-07-24T11:38:02;27.90;96.70
13203;DHT22;6666;51.626;7.530;2022-07-24T11:40:35;28.00;96.90
13203;DHT22;6666;51.626;7.530;2022-07-24T11:43:06;28.20;97.40
13203;DHT22;6666;51.626;7.530;2022-07-24T11:45:37;28.10;96.50
13203;DHT22;6666;51.626;7.530;2022-07-24T11:48:06;28.30;97.40
13203;DHT22;6666;51.626;7.530;2022-07-24T11:50:35;28.40;96.90
13203;DHT22;6666;51.626;7.530;2022-07-24T11:53:05;28.20;95.70
13203;DHT22;6666;51.626;7.530;2022-07-24T11:55:35;28.20;94.70
13203;DHT22;6666;51.626;7.530;2022-07-24T11:58:04;28.00;93.80
13203;DHT22;6666;51.626;7.530;2022-07-24T12:00:53;28.10;94.80
13203;DHT22;6666;51.626;7.530;2022-07-24T12:03:23;28.20;94.70
13203;DHT22;6666;51.626;7.530;2022-07-24T12:05:52;28.20;93.60
13203;DHT22;6666;51.626;7.530;2022-07-24T12:08:23;28.10;94.40
13203;DHT22;6666;51.626;7.530;2022-07-24T12:10:57;28.10;94.20
13203;DHT22;6666;51.626;7.530;2022-07-24T12:13:28;28.20;94.70
13203;DHT22;6666;51.626;7.530;2022-07-24T12:15:57;28.20;93.50
13203;DHT22;6666;51.626;7.530;2022-07-24T12:18:25;28.30;94.50
13203;DHT22;6666;51.626;7.530;2022-07-24T12:21:02;28.20;93.10
13203;DHT22;6666;51.626;7.530;2022-07-24T12:23:31;28.20;91.90
13203;DHT22;6666;51.626;7.530;2022-07-24T12:26:02;28.30;93.10
13203;DHT22;6666;51.626;7.530;2022-07-24T12:28:31;28.40;93.90
13203;DHT22;6666;51.626;7.530;2022-07-24T12:31:06;28.40;94.10
13203;DHT22;6666;51.626;7.530;2022-07-24T12:33:35;28.40;92.40
13203;DHT22;6666;51.626;7.530;2022-07-24T12:36:04;28.30;92.40
13203;DHT22;6666;51.626;7.530;2022-07-24T12:38:39;28.30;92.20
13203;DHT22;6666;51.626;7.530;2022-07-24T12:41:10;28.30;93.10
13203;DHT22;6666;51.626;7.530;2022-07-24T12:43:49;28.30;91.70
13203;DHT22;6666;51.626;7.530;2022-07-24T12:46:20;28.50;92.70
13203;DHT22;6666;51.626;7.530;2022-07-24T12:48:58;28.50;91.70
13203;DHT22;6666;51.626;7.530;2022-07-24T12:51:32;28.50;90.40
13203;DHT22;6666;51.626;7.530;2022-07-24T12:54:15;28.30;90.50
13203;DHT22;6666;51.626;7.530;2022-07-24T12:56:48;28.40;90.30
13203;DHT22;6666;51.626;7.530;2022-07-24T12:59:24;28.30;89.60
13203;DHT22;6666;51.626;7.530;2022-07-24T13:01:54;28.30;89.80
13203;DHT22;6666;51.626;7.530;2022-07-24T13:04:24;28.30;88.20
13203;DHT22;6666;51.626;7.530;2022-07-24T13:06:54;28.30;89.40
13203;DHT22;6666;51.626;7.530;2022-07-24T13:09:23;28.50;91.20
13203;DHT22;6666;51.626;7.530;2022-07-24T13:11:55;28.70;89.90
13203;DHT22;6666;51.626;7.530;2022-07-24T13:14:24;28.70;88.80
13203;DHT22;6666;51.626;7.530;2022-07-24T13:16:53;28.80;85.60
13203;DHT22;6666;51.626;7.530;2022-07-24T13:19:22;28.70;86.10
13203;DHT22;6666;51.626;7.530;2022-07-24T13:21:50;28.60;87.70
13203;DHT22;6666;51.626;7.530;2022-07-24T13:24:18;28.50;86.20
13203;DHT22;6666;51.626;7.530;2022-07-24T13:26:49;28.60;88.10
13203;DHT22;6666;51.626;7.530;2022-07-24T13:29:18;28.50;84.70
13203;DHT22;6666;51.626;7.530;2022-07-24T13:31:47;28.50;85.30
13203;DHT22;6666;51.626;7.530;2022-07-24T13:34:15;28.60;88.30
13203;DHT22;6666;51.626;7.530;2022-07-24T13:36:44;28.60;85.80
13203;DHT22;6666;51.626;7.530;2022-07-24T13:39:14;28.80;84.40
13203;DHT22;6666;51.626;7.530;2022-07-24T13:41:43;28.80;84.50
13203;DHT22;6666;51.626;7.530;2022-07-24T13:44:11;28.90;82.90
13203;DHT22;6666;51.626;7.530;2022-07-24T13:46:41;28.80;83.20
13203;DHT22;6666;51.626;7.530;2022-07-24T13:49:10;28.80;83.00
13203;DHT22;6666;51.626;7.530;2022-07-24T13:51:41;28.70;82.40
13203;DHT22;6666;51.626;7.530;2022-07-24T13:54:09;28.70;83.20
13203;DHT22;6666;51.626;7.530;2022-07-24T13:56:38;28.70;83.00
13203;DHT22;6666;51.626;7.530;2022-07-24T13:59:07;28.70;82.60
13203;DHT22;6666;51.626;7.530;2022-07-24T14:01:35;28.70;84.50
13203;DHT22;6666;51.626;7.530;2022-07-24T14:04:05;28.50;83.30
13203;DHT22;6666;51.626;7.530;2022-07-24T14:06:54;28.70;83.60
13203;DHT22;6666;51.626;7.530;2022-07-24T14:09:23;28.80;83.80
13203;DHT22;6666;51.626;7.530;2022-07-24T14:11:51;28.70;82.00
13203;DHT22;6666;51.626;7.530;2022-07-24T14:14:20;28.60;82.80
13203;DHT22;6666;51.626;7.530;2022-07-24T14:16:49;28.60;84.70
13203;DHT22;6666;51.626;7.530;2022-07-24T14:19:19;28.70;85.00
13203;DHT22;6666;51.626;7.530;2022-07-24T14:21:47;28.70;85.60
13203;DHT22;6666;51.626;7.530;2022-07-24T14:24:16;28.70;83.90
13203;DHT22;6666;51.626;7.530;2022-07-24T14:26:46;28.80;82.20
13203;DHT22;6666;51.626;7.530;2022-07-24T14:29:15;28.90;82.80
13203;DHT22;6666;51.626;7.530;2022-07-24T14:31:43;28.90;82.80
13203;DHT22;6666;51.626;7.530;2022-07-24T14:34:11;28.90;82.70
13203;DHT22;6666;51.626;7.530;2022-07-24T14:36:41;29.00;81.20
13203;DHT22;6666;51.626;7.530;2022-07-24T14:39:10;28.90;82.50
13203;DHT22;6666;51.626;7.530;2022-07-24T14:41:38;29.00;81.40
13203;DHT22;6666;51.626;7.530;2022-07-24T14:44:06;28.90;83.30
13203;DHT22;6666;51.626;7.530;2022-07-24T14:46:37;28.80;83.70
13203;DHT22;6666;51.626;7.530;2022-07-24T14:49:06;29.00;83.40
13203;DHT22;6666;51.626;7.530;2022-07-24T14:51:35;29.10;83.00
13203;DHT22;6666;51.626;7.530;2022-07-24T14:54:05;28.90;83.00
13203;DHT22;6666;51.626;7.530;2022-07-24T14:56:35;29.00;85.70
13203;DHT22;6666;51.626;7.530;2022-07-24T14:59:04;29.10;84.00
13203;DHT22;6666;51.626;7.530;2022-07-24T15:01:33;29.10;82.30
13203;DHT22;6666;51.626;7.530;2022-07-24T15:04:05;29.00;83.90
13203;DHT22;6666;51.626;7.530;2022-07-24T15:06:35;29.00;82.90
13203;DHT22;6666;51.626;7.530;2022-07-24T15:09:06;29.00;82.90
13203;DHT22;6666;51.626;7.530;2022-07-24T15:11:34;28.90;85.00
13203;DHT22;6666;51.626;7.530;2022-07-24T15:14:04;29.10;83.70
13203;DHT22;6666;51.626;7.530;2022-07-24T15:16:34;29.10;84.30
13203;DHT22;6666;51.626;7.530;2022-07-24T15:19:03;29.00;84.50
13203;DHT22;6666;51.626;7.530;2022-07-24T15:21:34;29.10;84.20
13203;DHT22;6666;51.626;7.530;2022-07-24T15:24:05;29.10;83.90
13203;DHT22;6666;51.626;7.530;2022-07-24T15:26:35;29.20;83.50
13203;DHT22;6666;51.626;7.530;2022-07-24T15:29:03;29.20;84.90
13203;DHT22;6666;51.626;7.530;2022-07-24T15:31:32;29.10;83.20
13203;DHT22;6666;51.626;7.530;2022-07-24T15:34:04;29.20;83.50
13203;DHT22;6666;51.626;7.530;2022-07-24T15:36:33;29.10;84.80
13203;DHT22;6666;51.626;7.530;2022-07-24T15:39:01;29.10;84.50
13203;DHT22;6666;51.626;7.530;2022-07-24T15:41:31;29.10;83.00
13203;DHT22;6666;51.626;7.530;2022-07-24T15:43:59;29.00;83.00
13203;DHT22;6666;51.626;7.530;2022-07-24T15:46:29;29.00;84.40
13203;DHT22;6666;51.626;7.530;2022-07-24T15:48:57;29.00;81.40
13203;DHT22;6666;51.626;7.530;2022-07-24T15:51:31;29.00;82.50
13203;DHT22;6666;51.626;7.530;2022-07-24T15:54:00;29.10;85.70
13203;DHT22;6666;51.626;7.530;2022-07-24T15:56:30;29.10;82.50
13203;DHT22;6666;51.626;7.530;2022-07-24T15:58:59;29.30;81.10
13203;DHT22;6666;51.626;7.530;2022-07-24T16:01:27;29.30;80.70
13203;DHT22;6666;51.626;7.530;2022-07-24T16:04:14;29.20;81.20